Time;durP1;ratioP1;P1;durP2;ratioP2;P2;SDS_P1;SDS_P2;PMS_P1;PMS_P2;Temp;Humidity;BMP_temperature;BMP_pressure;BME280_temperature;BME280_humidity;BME280_pressure;Samples;Min_cycle;Max_cycle;Signal;HPM_P1;HPM_P2
2022/01/30 00:00:56;;;;;;;0.00;0.00;;;17.30;31.90;17.30;94975.00;;;;10313801;28;46209;-74
2022/01/30 00:05:56;;;;;;;0.00;0.00;;;17.30;31.90;17.20;94982.00;;;;10313527;28;47805;-76
2022/01/30 00:11:05;;;;;;;0.00;0.00;;;17.30;31.90;17.30;94971.00;;;;10312218;28;45454;-74
2022/01/30 00:16:09;;;;;;;0.00;0.00;;;17.30;31.90;17.30;94963.00;;;;10312400;28;47250;-76
2022/01/30 00:26:15;;;;;;;0.00;0.00;;;17.20;31.90;17.20;94965.00;;;;10352685;28;45188;-75
2022/01/30 00:31:19;;;;;;;0.45;0.00;;;17.20;31.90;17.20;94969.00;;;;10352976;28;47036;-76
2022/01/30 00:36:20;;;;;;;0.00;0.00;;;17.20;32.00;17.20;94963.00;;;;10353597;28;47005;-76
2022/01/30 00:41:21;;;;;;;0.00;0.00;;;17.20;32.10;17.20;94953.00;;;;10353075;28;47259;-74
2022/01/30 00:46:22;;;;;;;0.10;0.08;;;17.20;32.10;17.20;94942.00;;;;10357336;22;45142;-74
2022/01/30 00:51:22;;;;;;;0.00;0.00;;;17.20;31.90;17.20;94937.00;;;;10313071;28;46878;-74
2022/01/30 00:56:23;;;;;;;0.00;0.00;;;17.20;31.90;17.20;94958.00;;;;10308066;28;47891;-73
2022/01/30 01:01:24;;;;;;;0.00;0.00;;;17.20;32.00;17.10;94952.00;;;;10272490;28;47232;-75
2022/01/30 01:06:24;;;;;;;0.00;0.00;;;17.10;31.90;17.10;94919.00;;;;10270655;28;46872;-74
2022/01/30 01:27:18;;;;;;;0.00;0.00;;;17.10;32.10;17.10;94929.00;;;;10314423;28;45764;-73
2022/01/30 01:32:19;;;;;;;0.00;0.00;;;17.10;32.20;17.10;94928.00;;;;10297925;28;48336;-74
2022/01/30 01:37:19;;;;;;;0.00;0.00;;;17.10;32.30;17.10;94913.00;;;;10298797;28;47231;-74
2022/01/30 01:42:20;;;;;;;0.00;0.00;;;17.00;32.10;17.10;94956.00;;;;10305074;28;46920;-74
2022/01/30 01:47:23;;;;;;;0.00;0.00;;;17.00;32.40;17.10;94939.00;;;;10302285;28;48229;-73
2022/01/30 01:52:26;;;;;;;0.00;0.00;;;17.10;32.60;17.10;94925.00;;;;10303425;28;47229;-76
2022/01/30 01:57:27;;;;;;;0.00;0.00;;;17.00;32.70;17.00;94935.00;;;;10304104;28;47151;-74
2022/01/30 02:02:29;;;;;;;0.00;0.00;;;17.00;32.80;17.10;94927.00;;;;10302973;28;48075;-74
2022/01/30 02:12:52;;;;;;;0.00;0.00;;;17.00;32.80;17.00;94920.00;;;;10320860;28;45265;-74
2022/01/30 02:28:33;;;;;;;0.00;0.00;;;16.90;33.10;17.00;94927.00;;;;10322305;28;45631;-74
2022/01/30 02:33:34;;;;;;;0.00;0.00;;;16.90;33.10;17.00;94908.00;;;;10304011;28;47214;-74
2022/01/30 02:38:35;;;;;;;0.00;0.00;;;16.90;32.90;17.00;94880.00;;;;10303408;28;47634;-73
2022/01/30 02:43:43;;;;;;;0.10;0.05;;;16.90;33.10;17.00;94874.00;;;;10303597;28;47946;-74
2022/01/30 02:48:53;;;;;;;0.10;0.00;;;16.90;33.20;17.00;94900.00;;;;10303703;28;47610;-74
2022/01/30 02:54:03;;;;;;;0.00;0.00;;;16.90;33.30;16.90;94889.00;;;;10319110;28;48142;-75
2022/01/30 02:59:04;;;;;;;0.10;0.08;;;16.90;33.20;16.90;94896.00;;;;10319483;28;46307;-75
2022/01/30 03:04:07;;;;;;;0.00;0.00;;;16.90;33.40;16.90;94888.00;;;;10302730;28;46958;-74
2022/01/30 03:09:10;;;;;;;0.10;0.10;;;16.90;33.30;16.90;94861.00;;;;10302831;28;47458;-73
2022/01/30 03:14:10;;;;;;;0.05;0.00;;;16.90;33.40;16.90;94883.00;;;;10301828;28;47066;-74
2022/01/30 03:19:11;;;;;;;0.00;0.00;;;16.80;33.30;16.90;94889.00;;;;10318779;28;45200;-73
2022/01/30 03:24:12;;;;;;;0.00;0.00;;;16.80;33.20;16.90;94886.00;;;;10301888;28;47691;-74
2022/01/30 03:29:12;;;;;;;0.45;0.00;;;16.80;33.40;16.90;94881.00;;;;10301966;28;47201;-74
2022/01/30 03:34:13;;;;;;;0.00;0.00;;;16.80;33.50;16.90;94878.00;;;;10301427;28;46925;-74
2022/01/30 03:39:14;;;;;;;0.00;0.00;;;16.80;33.30;16.90;94891.00;;;;10301099;28;46870;-74
2022/01/30 03:44:15;;;;;;;0.10;0.00;;;16.80;33.40;16.90;94880.00;;;;10317538;28;46512;-74
2022/01/30 03:49:16;;;;;;;0.00;0.00;;;16.70;33.40;16.90;94879.00;;;;10317123;28;46173;-74
2022/01/30 03:54:17;;;;;;;0.00;0.00;;;16.70;33.30;16.80;94905.00;;;;10301034;28;46896;-73
2022/01/30 03:59:18;;;;;;;0.00;0.00;;;16.80;33.50;16.80;94912.00;;;;10300511;28;47177;-75
2022/01/30 04:04:18;;;;;;;0.20;0.10;;;16.70;33.30;16.80;94900.00;;;;10300104;28;47591;-74
2022/01/30 04:09:19;;;;;;;0.00;0.00;;;16.70;33.30;16.80;94900.00;;;;10300433;28;48630;-73
2022/01/30 04:14:21;;;;;;;0.08;0.08;;;16.70;33.10;16.80;94909.00;;;;10299822;28;47545;-74
2022/01/30 04:19:22;;;;;;;0.03;0.00;;;16.70;33.40;16.80;94906.00;;;;10299243;28;46791;-74
2022/01/30 04:24:22;;;;;;;0.00;0.00;;;16.70;33.30;16.80;94891.00;;;;10299411;28;47338;-74
2022/01/30 04:29:23;;;;;;;0.00;0.00;;;16.70;33.10;16.70;94891.00;;;;10315987;28;45509;-74
2022/01/30 04:34:26;;;;;;;0.00;0.00;;;16.70;33.20;16.80;94914.00;;;;10298774;28;47446;-73
2022/01/30 04:40:10;;;;;;;0.05;0.00;;;16.60;33.40;16.70;94911.00;;;;10299675;28;47164;-73
2022/01/30 05:06:11;;;;;;;0.17;0.10;;;16.60;33.70;16.80;94911.00;;;;10315471;28;46030;-75
2022/01/30 05:11:12;;;;;;;0.00;0.00;;;16.70;33.70;16.80;94904.00;;;;10301283;28;48225;-74
2022/01/30 05:16:13;;;;;;;0.40;0.10;;;16.70;33.60;16.90;94920.00;;;;10304932;28;47031;-76
2022/01/30 05:21:14;;;;;;;0.13;0.00;;;16.80;33.70;16.80;94903.00;;;;10305314;28;47313;-74
2022/01/30 05:26:15;;;;;;;0.00;0.00;;;16.80;33.60;16.90;94912.00;;;;10305000;28;47611;-74
2022/01/30 05:31:16;;;;;;;0.00;0.00;;;16.90;33.70;17.00;94919.00;;;;10305465;28;46860;-73
2022/01/30 05:36:18;;;;;;;0.00;0.00;;;16.90;33.40;17.00;94918.00;;;;10304908;28;46946;-74
2022/01/30 05:41:19;;;;;;;0.00;0.00;;;16.90;33.50;17.00;94891.00;;;;10305375;28;47113;-75
2022/01/30 05:46:36;;;;;;;0.00;0.00;;;17.00;33.50;17.00;94907.00;;;;10304384;28;48211;-74
2022/01/30 05:51:37;;;;;;;0.00;0.00;;;17.00;33.40;17.00;94914.00;;;;10321954;28;45616;-74
2022/01/30 05:56:38;;;;;;;0.00;0.00;;;17.00;33.10;17.00;94932.00;;;;10304541;28;47898;-74
2022/01/30 06:01:38;;;;;;;0.00;0.00;;;17.10;33.20;17.10;94912.00;;;;10305126;28;46932;-74
2022/01/30 06:06:48;;;;;;;0.13;0.10;;;17.10;33.00;17.10;94920.00;;;;10304090;28;46810;-74
2022/01/30 06:11:52;;;;;;;0.00;0.00;;;17.10;33.10;17.10;94911.00;;;;10306167;28;46913;-74
2022/01/30 06:16:53;;;;;;;0.00;0.00;;;17.10;33.30;17.10;94893.00;;;;10320401;28;45544;-74
2022/01/30 06:21:54;;;;;;;0.05;0.00;;;17.10;32.90;17.10;94902.00;;;;10304988;28;46795;-74
2022/01/30 06:26:54;;;;;;;0.00;0.00;;;17.20;33.10;17.20;94919.00;;;;10303078;28;47197;-74
2022/01/30 06:31:55;;;;;;;0.00;0.00;;;17.20;33.10;17.20;94930.00;;;;10304597;28;47042;-75
2022/01/30 06:36:56;;;;;;;0.10;0.10;;;17.30;32.90;17.20;94922.00;;;;10304276;28;47073;-74
2022/01/30 06:41:56;;;;;;;0.10;0.00;;;17.20;33.00;17.20;94927.00;;;;10304653;28;48387;-74
2022/01/30 06:46:57;;;;;;;0.00;0.00;;;17.20;33.00;17.10;94930.00;;;;10330979;23;47854;-74
2022/01/30 06:51:58;;;;;;;0.00;0.00;;;17.20;33.10;17.10;94948.00;;;;10342617;28;47072;-74
2022/01/30 06:56:58;;;;;;;0.00;0.00;;;17.20;33.00;17.10;94949.00;;;;10336989;28;47178;-74
2022/01/30 07:01:59;;;;;;;0.00;0.00;;;17.20;33.00;17.20;94960.00;;;;10318485;28;45659;-74
2022/01/30 07:07:03;;;;;;;0.20;0.20;;;17.20;33.00;17.20;94960.00;;;;10319093;28;46213;-74
2022/01/30 07:12:04;;;;;;;0.22;0.10;;;17.20;33.00;17.20;94986.00;;;;10318777;28;46681;-74
2022/01/30 07:17:05;;;;;;;0.28;0.08;;;17.20;32.90;17.10;94959.00;;;;10321244;28;46894;-74
2022/01/30 07:22:06;;;;;;;0.10;0.10;;;17.20;32.90;17.10;94974.00;;;;10339034;28;46650;-74
2022/01/30 07:27:07;;;;;;;0.00;0.00;;;17.20;33.00;17.10;94988.00;;;;10359286;28;46411;-75
2022/01/30 07:32:08;;;;;;;0.00;0.00;;;17.10;32.90;17.10;94979.00;;;;10360042;28;46603;-74
2022/01/30 07:37:09;;;;;;;0.73;0.30;;;17.10;32.90;17.10;94985.00;;;;10341196;28;48301;-74
2022/01/30 07:42:11;;;;;;;0.13;0.10;;;17.10;33.10;17.10;94997.00;;;;10358914;28;47192;-74
2022/01/30 07:47:11;;;;;;;0.10;0.05;;;17.10;33.10;17.10;94976.00;;;;10341529;28;47078;-75
2022/01/30 07:52:12;;;;;;;0.30;0.13;;;17.10;33.10;17.10;95002.00;;;;10358574;28;45390;-74
2022/01/30 07:57:14;;;;;;;0.00;0.00;;;17.10;33.10;17.10;95013.00;;;;10359028;28;45477;-74
2022/01/30 08:02:15;;;;;;;0.10;0.00;;;17.00;33.20;17.10;95002.00;;;;10359269;28;46879;-74
2022/01/30 08:07:15;;;;;;;0.00;0.00;;;17.10;33.20;17.10;95001.00;;;;10341938;28;47105;-73
2022/01/30 08:12:19;;;;;;;0.25;0.10;;;17.00;33.10;17.00;94992.00;;;;10358692;28;45514;-74
2022/01/30 08:17:23;;;;;;;0.10;0.10;;;17.00;33.90;17.10;95012.00;;;;10312481;28;46565;-74
2022/01/30 08:22:28;;;;;;;0.08;0.08;;;17.00;33.30;17.10;95005.00;;;;10320527;27;46976;-73
2022/01/30 08:27:28;;;;;;;0.05;0.00;;;17.00;33.40;17.00;95024.00;;;;10357312;28;46862;-74
2022/01/30 08:32:29;;;;;;;0.10;0.10;;;17.00;33.60;17.00;95018.00;;;;10339900;28;47259;-75
2022/01/30 08:37:30;;;;;;;0.10;0.00;;;17.00;33.60;17.00;95024.00;;;;10336927;28;47240;-74
2022/01/30 08:42:30;;;;;;;0.10;0.10;;;17.00;33.70;17.00;95040.00;;;;10356437;28;47282;-74
2022/01/30 08:47:31;;;;;;;0.22;0.13;;;17.00;33.70;17.00;95032.00;;;;10339131;28;48167;-73
2022/01/30 08:52:32;;;;;;;0.15;0.15;;;17.00;33.70;17.00;95051.00;;;;10355922;28;45508;-74
2022/01/30 08:57:33;;;;;;;0.10;0.10;;;17.00;33.70;17.00;95038.00;;;;10355657;28;47106;-74
2022/01/30 09:02:34;;;;;;;0.20;0.20;;;17.00;33.70;17.00;95036.00;;;;10339707;28;47225;-74
2022/01/30 09:07:35;;;;;;;0.80;0.35;;;17.00;33.60;17.10;95046.00;;;;10341468;28;46972;-74
2022/01/30 09:12:37;;;;;;;0.30;0.20;;;17.00;33.70;17.10;95042.00;;;;10304041;28;45228;-74
2022/01/30 09:17:40;;;;;;;0.35;0.17;;;17.10;33.40;17.10;95028.00;;;;10315196;28;45425;-73
2022/01/30 09:22:41;;;;;;;0.20;0.10;;;17.10;33.20;17.20;95020.00;;;;10341331;28;47383;-74
2022/01/30 09:27:42;;;;;;;0.30;0.10;;;17.20;33.20;17.30;95035.00;;;;10339941;28;46998;-74
2022/01/30 09:32:43;;;;;;;1.45;0.10;;;17.30;34.90;17.30;95020.00;;;;10338258;28;47181;-74
2022/01/30 09:37:44;;;;;;;0.77;0.20;;;17.30;33.60;17.40;95030.00;;;;10301407;28;47483;-77
2022/01/30 09:42:47;;;;;;;0.50;0.20;;;17.40;34.70;17.40;95028.00;;;;10298292;28;47460;-73
2022/01/30 09:47:49;;;;;;;0.28;0.10;;;17.40;34.00;17.40;95024.00;;;;10314207;28;45573;-74
2022/01/30 09:52:50;;;;;;;0.45;0.10;;;17.50;33.90;17.50;95017.00;;;;10311851;28;45659;-72
2022/01/30 09:57:50;;;;;;;0.60;0.13;;;17.50;34.50;17.50;95019.00;;;;10313031;28;45273;-74
2022/01/30 10:02:51;;;;;;;0.00;0.00;;;17.60;34.30;17.60;94995.00;;;;10303734;28;47196;-74
2022/01/30 10:07:55;;;;;;;0.95;0.10;;;17.80;34.00;17.70;95014.00;;;;10303726;28;47123;-74
2022/01/30 10:13:14;;;;;;;0.10;0.10;;;17.90;34.70;17.80;95002.00;;;;10302905;28;47192;-74
2022/01/30 10:18:17;;;;;;;0.35;0.00;;;18.00;34.10;17.90;95000.00;;;;10303738;28;47163;-73
2022/01/30 10:23:19;;;;;;;0.40;0.17;;;18.10;34.10;17.90;95008.00;;;;10305929;28;47111;-74
2022/01/30 10:28:30;;;;;;;0.38;0.20;;;18.20;34.30;18.00;94992.00;;;;10302787;28;47057;-73
2022/01/30 10:33:47;;;;;;;0.32;0.17;;;18.30;33.60;18.00;94976.00;;;;10316979;28;48017;-75
2022/01/30 10:39:14;;;;;;;3.10;0.20;;;18.20;33.40;18.00;94997.00;;;;10303461;28;48223;-74
2022/01/30 10:44:15;;;;;;;2.30;0.35;;;18.20;34.30;18.00;94983.00;;;;10302923;28;46830;-72
2022/01/30 10:49:23;;;;;;;1.45;0.20;;;18.20;35.20;18.00;94983.00;;;;10299740;28;47146;-74
2022/01/30 10:54:29;;;;;;;1.58;0.10;;;18.20;34.10;18.00;94980.00;;;;10302024;28;47498;-73
2022/01/30 10:59:30;;;;;;;0.38;0.20;;;18.20;33.70;18.00;94946.00;;;;10300321;28;47617;-75
2022/01/30 11:04:32;;;;;;;0.15;0.15;;;18.20;33.70;17.90;94926.00;;;;10300789;28;46980;-74
2022/01/30 11:14:51;;;;;;;0.50;0.22;;;18.20;33.60;17.90;94902.00;;;;10318847;28;45230;-72
2022/01/30 11:19:54;;;;;;;1.25;0.30;;;18.10;33.60;17.90;94913.00;;;;10302789;28;48039;-74
2022/01/30 11:25:04;;;;;;;0.55;0.20;;;18.00;33.30;17.80;94897.00;;;;10317141;28;46486;-74
2022/01/30 11:30:07;;;;;;;0.75;0.30;;;18.00;33.30;17.80;94877.00;;;;10300490;28;46993;-74
2022/01/30 11:35:09;;;;;;;2.03;0.60;;;17.90;33.10;17.80;94892.00;;;;10316857;28;45485;-74
2022/01/30 11:40:12;;;;;;;2.20;0.45;;;17.90;33.00;17.70;94887.00;;;;10316059;28;47862;-74
2022/01/30 11:45:27;;;;;;;0.70;0.45;;;17.80;32.90;17.80;94876.00;;;;10315913;28;47547;-74
2022/01/30 11:50:32;;;;;;;1.23;0.35;;;17.90;32.90;17.70;94880.00;;;;10316174;28;45376;-75
2022/01/30 11:55:54;;;;;;;0.73;0.30;;;17.80;32.70;17.80;94848.00;;;;10299446;28;47565;-74
2022/01/30 12:00:55;;;;;;;0.70;0.30;;;17.90;32.70;17.70;94866.00;;;;10317332;28;45470;-75
2022/01/30 12:06:20;;;;;;;0.65;0.35;;;17.80;32.60;17.70;94870.00;;;;10315698;28;47498;-78
2022/01/30 12:11:36;;;;;;;1.40;0.38;;;17.80;32.70;17.70;94850.00;;;;10315065;28;46622;-75
2022/01/30 12:16:52;;;;;;;1.25;0.45;;;17.80;32.60;17.70;94846.00;;;;10315362;28;47803;-75
2022/01/30 12:21:52;;;;;;;0.20;0.20;;;17.80;32.60;17.70;94825.00;;;;10314971;28;46456;-74
2022/01/30 12:27:00;;;;;;;0.65;0.30;;;17.80;32.50;17.70;94828.00;;;;10299908;28;47238;-75
2022/01/30 12:32:19;;;;;;;1.10;0.25;;;17.80;32.60;17.60;94819.00;;;;10299204;28;47814;-74
2022/01/30 12:37:36;;;;;;;0.30;0.30;;;17.70;32.50;17.60;94816.00;;;;10315543;28;47297;-74
2022/01/30 12:42:38;;;;;;;1.03;0.33;;;17.70;32.50;17.60;94806.00;;;;10315244;28;46567;-74
2022/01/30 12:47:52;;;;;;;1.05;0.20;;;17.70;32.50;17.60;94792.00;;;;10347247;28;48191;-75
2022/01/30 12:53:07;;;;;;;0.73;0.30;;;17.60;32.60;17.60;94826.00;;;;10345930;28;46424;-75
2022/01/30 12:58:09;;;;;;;0.73;0.20;;;17.60;32.60;17.60;94803.00;;;;10313490;28;48162;-75
2022/01/30 13:03:20;;;;;;;0.90;0.30;;;17.60;32.60;17.60;94814.00;;;;10346351;28;46510;-75
2022/01/30 13:08:21;;;;;;;0.75;0.30;;;17.60;32.80;17.60;94828.00;;;;10313736;28;45233;-75
2022/01/30 13:13:21;;;;;;;0.50;0.28;;;17.60;32.70;17.60;94828.00;;;;10345492;28;48454;-75
2022/01/30 13:18:22;;;;;;;0.68;0.20;;;17.60;32.60;17.60;94814.00;;;;10345889;28;45364;-75
2022/01/30 13:23:26;;;;;;;0.70;0.30;;;17.60;32.50;17.60;94827.00;;;;10369208;28;47490;-75
2022/01/30 13:28:30;;;;;;;0.43;0.20;;;17.60;32.40;17.60;94819.00;;;;10335304;28;47129;-75
2022/01/30 13:33:31;;;;;;;1.10;0.30;;;17.70;32.40;17.60;94807.00;;;;10351799;28;46034;-75
2022/01/30 13:38:41;;;;;;;0.77;0.30;;;17.60;32.30;17.60;94821.00;;;;10339669;28;47863;-74
2022/01/30 13:43:49;;;;;;;0.40;0.20;;;17.60;32.20;17.50;94820.00;;;;10342672;28;47468;-76
2022/01/30 13:48:50;;;;;;;1.38;0.28;;;17.60;32.00;17.50;94823.00;;;;10340276;28;47927;-75
2022/01/30 13:54:10;;;;;;;1.35;0.30;;;17.60;32.00;17.50;94829.00;;;;10339202;28;48059;-74
2022/01/30 13:59:26;;;;;;;0.38;0.25;;;17.60;32.00;17.60;94829.00;;;;10339939;28;47362;-74
2022/01/30 14:04:27;;;;;;;0.68;0.20;;;17.70;32.00;17.60;94806.00;;;;10338597;28;47366;-75
2022/01/30 14:09:43;;;;;;;0.70;0.30;;;17.70;31.90;17.60;94822.00;;;;10339673;28;47168;-75
2022/01/30 14:15:03;;;;;;;1.40;0.23;;;17.70;32.00;17.60;94820.00;;;;10355791;28;45329;-75
2022/01/30 14:20:08;;;;;;;1.65;0.40;;;17.70;32.00;17.60;94815.00;;;;10355367;28;47069;-74
2022/01/30 14:25:12;;;;;;;1.10;0.30;;;17.70;31.90;17.70;94816.00;;;;10354893;28;45290;-74
2022/01/30 14:30:13;;;;;;;1.63;0.55;;;17.80;31.80;17.70;94799.00;;;;10356274;28;48403;-76
2022/01/30 14:35:14;;;;;;;1.48;0.57;;;17.80;31.80;17.70;94802.00;;;;10355514;28;47181;-75
2022/01/30 14:40:17;;;;;;;1.13;0.45;;;17.80;31.70;17.70;94796.00;;;;10338026;28;47335;-74
2022/01/30 14:45:18;;;;;;;1.85;0.60;;;17.90;31.60;17.70;94777.00;;;;10354794;28;47906;-74
2022/01/30 14:50:20;;;;;;;3.38;0.80;;;17.80;31.90;17.80;94783.00;;;;10337132;28;48332;-75
2022/01/30 14:55:22;;;;;;;1.52;0.68;;;17.90;31.50;17.80;94769.00;;;;10338230;28;47357;-75
2022/01/30 15:00:25;;;;;;;2.38;0.70;;;17.90;31.40;17.80;94773.00;;;;10354431;28;47196;-75
2022/01/30 15:05:26;;;;;;;1.30;0.50;;;18.00;31.40;17.80;94753.00;;;;10338913;28;48096;-74
2022/01/30 15:10:27;;;;;;;1.70;0.60;;;17.90;31.20;17.80;94756.00;;;;10337822;28;47556;-75
2022/01/30 15:15:32;;;;;;;1.20;0.45;;;17.90;31.20;17.80;94734.00;;;;10336934;28;46906;-74
2022/01/30 15:20:32;;;;;;;0.90;0.30;;;17.90;31.10;17.80;94732.00;;;;10337098;28;47171;-74
2022/01/30 15:25:34;;;;;;;1.65;0.40;;;17.90;31.10;17.80;94737.00;;;;10352832;28;47248;-75
2022/01/30 15:30:36;;;;;;;2.53;0.50;;;18.00;31.20;17.80;94748.00;;;;10355181;28;45673;-74
2022/01/30 15:35:38;;;;;;;2.00;0.50;;;18.00;31.00;17.80;94745.00;;;;10356720;28;46617;-74
2022/01/30 15:40:39;;;;;;;1.38;0.60;;;18.00;30.90;17.80;94746.00;;;;10337686;28;47671;-75
2022/01/30 15:51:01;;;;;;;2.05;0.82;;;17.90;30.90;17.80;94729.00;;;;10358064;28;45648;-74
2022/01/30 15:56:02;;;;;;;1.60;0.80;;;17.90;30.60;17.80;94732.00;;;;10358854;28;45365;-74
2022/01/30 16:01:06;;;;;;;1.42;0.40;;;17.90;30.50;17.70;94743.00;;;;10359380;28;47331;-75
2022/01/30 16:06:06;;;;;;;1.63;0.63;;;17.90;30.40;17.70;94730.00;;;;10341419;28;47293;-75
2022/01/30 16:16:17;;;;;;;2.47;0.80;;;17.80;30.40;17.70;94740.00;;;;10389793;28;45247;-75
2022/01/30 16:21:18;;;;;;;2.88;1.38;;;17.80;30.40;17.70;94746.00;;;;10396390;28;45609;-75
2022/01/30 16:26:19;;;;;;;2.00;1.10;;;17.80;30.40;17.70;94732.00;;;;10395097;28;45753;-75
2022/01/30 16:31:19;;;;;;;1.92;1.38;;;17.80;30.40;17.70;94745.00;;;;10391093;28;46976;-74
2022/01/30 16:36:20;;;;;;;2.53;1.08;;;17.80;30.50;17.80;94742.00;;;;10382162;28;45155;-76
2022/01/30 16:41:22;;;;;;;3.28;1.45;;;17.90;31.10;17.90;94729.00;;;;10357800;28;45649;-79
2022/01/30 16:51:33;;;;;;;4.32;2.20;;;18.10;30.70;17.90;94743.00;;;;10347283;28;45501;-74
2022/01/30 16:56:34;;;;;;;8.18;3.20;;;18.10;30.60;17.80;94754.00;;;;10314300;28;48418;-74
2022/01/30 17:01:37;;;;;;;9.63;4.38;;;18.00;30.40;17.80;94739.00;;;;10297225;28;48382;-74
2022/01/30 17:06:38;;;;;;;9.68;4.82;;;18.00;30.40;17.80;94745.00;;;;10313164;28;45209;-74
2022/01/30 17:11:49;;;;;;;11.00;5.70;;;17.90;30.30;17.80;94739.00;;;;10303666;28;47332;-76
2022/01/30 17:16:50;;;;;;;10.65;5.07;;;17.90;30.40;17.70;94727.00;;;;10320270;28;47121;-74
2022/01/30 17:21:51;;;;;;;7.50;3.50;;;17.80;30.20;17.70;94720.00;;;;10339328;28;46779;-74
2022/01/30 17:26:54;;;;;;;6.50;3.10;;;17.80;30.20;17.70;94737.00;;;;10360783;28;46334;-74
2022/01/30 17:31:54;;;;;;;5.50;2.25;;;17.80;30.30;17.70;94723.00;;;;10361011;28;45288;-74
2022/01/30 17:36:55;;;;;;;3.60;1.70;;;17.70;30.30;17.70;94715.00;;;;10343699;28;47027;-74
2022/01/30 17:41:56;;;;;;;3.55;1.65;;;17.70;30.30;17.70;94718.00;;;;10362137;28;46451;-74
2022/01/30 17:46:56;;;;;;;2.90;1.30;;;17.70;30.40;17.60;94701.00;;;;10359947;28;45718;-75
2022/01/30 17:51:57;;;;;;;1.98;1.00;;;17.70;30.40;17.60;94710.00;;;;10360370;28;45214;-74
2022/01/30 17:56:59;;;;;;;2.63;1.10;;;17.70;30.40;17.60;94685.00;;;;10343428;28;46956;-74
2022/01/30 18:02:00;;;;;;;2.47;1.10;;;17.60;30.40;17.60;94685.00;;;;10344380;28;46829;-74
2022/01/30 18:07:01;;;;;;;2.58;0.90;;;17.60;30.40;17.60;94689.00;;;;10359468;28;48438;-74
2022/01/30 18:12:05;;;;;;;3.60;1.08;;;17.60;30.40;17.60;94669.00;;;;10343258;28;47261;-74
2022/01/30 18:17:08;;;;;;;2.33;0.98;;;17.60;30.40;17.60;94701.00;;;;10342917;28;47392;-74
2022/01/30 18:22:08;;;;;;;4.30;1.10;;;17.60;30.40;17.50;94680.00;;;;10358211;28;47140;-74
2022/01/30 18:27:10;;;;;;;2.65;0.90;;;17.60;30.40;17.50;94673.00;;;;10342573;28;48099;-74
2022/01/30 18:32:11;;;;;;;3.40;1.25;;;17.50;30.40;17.50;94671.00;;;;10359188;28;45536;-74
2022/01/30 18:37:21;;;;;;;4.45;1.10;;;17.50;30.50;17.50;94670.00;;;;10358156;28;47876;-74
2022/01/30 18:42:22;;;;;;;2.60;0.80;;;17.50;30.50;17.60;94656.00;;;;10342568;28;47244;-74
2022/01/30 18:47:23;;;;;;;3.58;1.08;;;17.60;30.40;17.60;94641.00;;;;10338283;28;47221;-74
2022/01/30 18:52:24;;;;;;;2.38;0.90;;;17.60;30.40;17.60;94648.00;;;;10356683;28;47160;-74
2022/01/30 18:57:24;;;;;;;3.03;0.88;;;17.70;30.40;17.60;94635.00;;;;10341095;28;46979;-74
2022/01/30 19:02:25;;;;;;;3.15;0.82;;;17.70;30.40;17.60;94625.00;;;;10341365;28;48090;-74
2022/01/30 19:07:26;;;;;;;3.50;1.10;;;17.70;30.30;17.70;94611.00;;;;10358735;28;46665;-75
2022/01/30 19:12:29;;;;;;;5.03;1.20;;;17.70;30.20;17.70;94617.00;;;;10357564;28;46436;-75
2022/01/30 19:17:29;;;;;;;2.55;0.80;;;17.70;30.20;17.70;94611.00;;;;10357281;28;47520;-75
2022/01/30 19:22:30;;;;;;;3.95;1.20;;;17.80;30.20;17.70;94592.00;;;;10359717;28;46353;-74
2022/01/30 19:27:31;;;;;;;3.60;0.90;;;17.80;30.10;17.70;94606.00;;;;10357914;28;45351;-75
2022/01/30 19:32:31;;;;;;;3.17;1.00;;;17.80;30.10;17.80;94589.00;;;;10359244;28;45409;-75
2022/01/30 19:37:32;;;;;;;2.47;0.90;;;18.00;30.10;17.80;94596.00;;;;10303763;28;46828;-75
2022/01/30 19:42:36;;;;;;;3.03;1.02;;;17.90;30.10;17.80;94596.00;;;;10317601;28;45310;-75
2022/01/30 19:47:41;;;;;;;2.50;1.20;;;17.90;30.00;17.80;94584.00;;;;10315625;28;47493;-74
2022/01/30 19:52:46;;;;;;;2.83;1.40;;;18.00;29.80;17.70;94557.00;;;;10301561;28;46899;-76
2022/01/30 19:57:47;;;;;;;3.28;1.23;;;17.80;29.80;17.70;94552.00;;;;10369921;23;45206;-76
2022/01/30 20:02:48;;;;;;;3.83;1.05;;;17.80;30.00;17.70;94536.00;;;;10341044;28;47915;-76
2022/01/30 20:07:49;;;;;;;2.85;0.90;;;17.80;29.80;17.60;94537.00;;;;10340181;28;47340;-76
2022/01/30 20:12:50;;;;;;;2.85;1.08;;;17.80;29.70;17.70;94544.00;;;;10339664;28;46914;-76
2022/01/30 20:17:50;;;;;;;2.38;1.00;;;17.70;29.60;17.60;94541.00;;;;10339093;28;47211;-76
2022/01/30 20:22:51;;;;;;;4.00;1.38;;;17.70;29.40;17.60;94532.00;;;;10368808;28;47561;-77
2022/01/30 20:27:52;;;;;;;4.03;1.23;;;17.60;29.30;17.20;94505.00;;;;10396877;28;45587;-76
2022/01/30 20:32:54;;;;;;;3.30;0.90;;;17.60;29.10;17.50;94507.00;;;;10380068;28;47129;-78
2022/01/30 20:37:55;;;;;;;3.38;1.13;;;17.50;29.10;17.50;94497.00;;;;10396535;28;45452;-78
2022/01/30 20:42:55;;;;;;;3.80;1.33;;;17.50;29.10;17.50;94496.00;;;;10378876;28;47098;-79
2022/01/30 20:47:56;;;;;;;2.47;0.90;;;17.50;29.10;17.50;94500.00;;;;10379024;28;47009;-79
2022/01/30 20:54:12;;;;;;;2.38;0.90;;;17.40;28.90;17.50;94517.00;;;;10370408;28;47297;-79
2022/01/30 20:59:12;;;;;;;4.30;1.08;;;17.40;29.00;17.40;94514.00;;;;10354847;28;47021;-78
2022/01/30 21:04:18;;;;;;;3.33;1.00;;;17.40;29.00;17.40;94483.00;;;;10338862;28;47342;-80
2022/01/30 21:09:19;;;;;;;3.38;1.08;;;17.30;28.90;17.40;94478.00;;;;10357523;28;45347;-78
2022/01/30 21:14:19;;;;;;;2.33;1.00;;;17.40;29.50;17.40;94458.00;;;;10337986;28;47143;-78
2022/01/30 21:19:20;;;;;;;3.25;0.80;;;17.40;29.50;17.40;94464.00;;;;10339148;28;47872;-78
2022/01/30 21:24:24;;;;;;;1.45;0.65;;;17.40;29.50;17.40;94435.00;;;;10359255;28;46941;-78
2022/01/30 21:29:25;;;;;;;2.33;0.90;;;17.40;29.50;17.40;94441.00;;;;10396802;28;45373;-78
2022/01/30 21:34:29;;;;;;;2.88;0.90;;;17.30;29.40;17.40;94447.00;;;;10378112;28;48023;-78
2022/01/30 21:39:30;;;;;;;3.03;0.95;;;17.30;29.30;17.40;94421.00;;;;10395685;28;45254;-78
2022/01/30 21:44:31;;;;;;;3.45;0.90;;;17.30;29.10;17.30;94423.00;;;;10378520;28;47316;-78
2022/01/30 21:49:32;;;;;;;4.32;1.10;;;17.30;29.10;17.30;94418.00;;;;10378775;28;47357;-78
2022/01/30 21:54:32;;;;;;;5.80;1.00;;;17.30;29.00;17.30;94415.00;;;;10379122;28;47036;-78
2022/01/30 21:59:33;;;;;;;2.88;1.00;;;17.20;28.90;17.30;94402.00;;;;10385168;28;48445;-78
2022/01/30 22:04:37;;;;;;;2.50;0.90;;;17.20;28.70;17.30;94416.00;;;;10401305;28;45383;-78
2022/01/30 22:09:37;;;;;;;3.45;1.10;;;17.20;28.70;17.30;94377.00;;;;10385636;28;47826;-78
2022/01/30 22:14:41;;;;;;;2.28;0.95;;;17.20;28.70;17.30;94317.00;;;;10400836;28;47213;-78
2022/01/30 22:19:42;;;;;;;3.15;1.15;;;17.20;28.60;17.30;94371.00;;;;10400000;28;47129;-78
2022/01/30 22:24:43;;;;;;;3.33;1.05;;;17.20;28.50;17.30;94384.00;;;;10359878;28;45409;-78
2022/01/30 22:29:43;;;;;;;2.67;1.00;;;17.10;28.50;17.20;94375.00;;;;10343584;28;47190;-78
2022/01/30 22:34:44;;;;;;;2.83;1.00;;;17.10;28.50;17.20;94391.00;;;;10343022;28;47473;-78
2022/01/30 22:39:45;;;;;;;4.03;1.10;;;17.10;28.50;17.20;94370.00;;;;10342890;28;47086;-78
2022/01/30 22:44:46;;;;;;;4.07;1.05;;;17.10;28.60;17.20;94354.00;;;;10359409;28;48087;-78
2022/01/30 22:49:47;;;;;;;2.55;1.02;;;17.10;28.60;17.20;94314.00;;;;10342860;28;47245;-78
2022/01/30 22:54:47;;;;;;;3.58;1.00;;;17.10;28.60;17.20;94323.00;;;;10342301;28;46957;-78
2022/01/30 23:00:13;;;;;;;2.88;0.98;;;17.00;28.70;17.20;94343.00;;;;10358464;28;45350;-78
2022/01/30 23:05:14;;;;;;;3.72;0.95;;;17.00;28.70;17.20;94328.00;;;;10341599;28;47013;-78
2022/01/30 23:10:15;;;;;;;6.25;1.25;;;17.00;28.90;17.10;94293.00;;;;10358938;28;46912;-78
2022/01/30 23:15:16;;;;;;;3.38;0.90;;;17.00;28.90;17.10;94288.00;;;;10357918;28;46908;-78
2022/01/30 23:20:17;;;;;;;3.47;1.05;;;17.00;28.90;17.10;94279.00;;;;10347396;28;48706;-78
2022/01/30 23:25:18;;;;;;;3.55;0.98;;;17.00;28.90;17.10;94241.00;;;;10399178;28;45608;-78
2022/01/30 23:30:21;;;;;;;2.00;0.77;;;17.00;29.00;17.10;94227.00;;;;10398814;28;48295;-78